sensor_id;sensor_type;location;lat;lon;timestamp;temperature;humidity
65036;DHT22;51603;49.300;8.880;2024-03-02T00:02:13;4.60;99.90
65036;DHT22;51603;49.300;8.880;2024-03-02T00:04:39;4.60;99.90
65036;DHT22;51603;49.300;8.880;2024-03-02T00:07:06;4.60;99.90
65036;DHT22;51603;49.300;8.880;2024-03-02T00:09:32;4.50;99.90
65036;DHT22;51603;49.300;8.880;2024-03-02T00:11:59;4.50;99.90
65036;DHT22;51603;49.300;8.880;2024-03-02T00:14:25;4.50;99.90
65036;DHT22;51603;49.300;8.880;2024-03-02T00:16:51;4.50;99.90
65036;DHT22;51603;49.300;8.880;2024-03-02T00:19:17;4.50;99.90
65036;DHT22;51603;49.300;8.880;2024-03-02T00:21:42;4.50;99.90
65036;DHT22;51603;49.300;8.880;2024-03-02T00:24:31;4.50;99.90
65036;DHT22;51603;49.300;8.880;2024-03-02T00:26:57;4.50;99.90
65036;DHT22;51603;49.300;8.880;2024-03-02T00:29:23;4.50;99.90
65036;DHT22;51603;49.300;8.880;2024-03-02T00:31:49;4.40;99.90
65036;DHT22;51603;49.300;8.880;2024-03-02T00:34:15;4.40;99.90
65036;DHT22;51603;49.300;8.880;2024-03-02T00:36:42;4.40;99.90
65036;DHT22;51603;49.300;8.880;2024-03-02T00:39:07;4.40;99.90
65036;DHT22;51603;49.300;8.880;2024-03-02T00:41:33;4.30;99.90
65036;DHT22;51603;49.300;8.880;2024-03-02T00:44:04;4.30;99.90
65036;DHT22;51603;49.300;8.880;2024-03-02T00:46:38;4.40;99.90
65036;DHT22;51603;49.300;8.880;2024-03-02T00:49:23;4.40;99.90
65036;DHT22;51603;49.300;8.880;2024-03-02T00:51:51;4.30;99.90
65036;DHT22;51603;49.300;8.880;2024-03-02T00:54:25;4.30;99.90
65036;DHT22;51603;49.300;8.880;2024-03-02T00:56:52;4.30;99.90
65036;DHT22;51603;49.300;8.880;2024-03-02T00:59:20;4.30;99.90
65036;DHT22;51603;49.300;8.880;2024-03-02T01:01:47;4.30;99.90
65036;DHT22;51603;49.300;8.880;2024-03-02T01:04:12;4.20;99.90
65036;DHT22;51603;49.300;8.880;2024-03-02T01:06:39;4.20;99.90
65036;DHT22;51603;49.300;8.880;2024-03-02T01:09:04;4.20;99.90
65036;DHT22;51603;49.300;8.880;2024-03-02T01:11:30;4.20;99.90
65036;DHT22;51603;49.300;8.880;2024-03-02T01:13:55;4.20;99.90
65036;DHT22;51603;49.300;8.880;2024-03-02T01:16:21;4.20;99.90
65036;DHT22;51603;49.300;8.880;2024-03-02T01:18:46;4.10;99.90
65036;DHT22;51603;49.300;8.880;2024-03-02T01:21:12;4.10;99.90
65036;DHT22;51603;49.300;8.880;2024-03-02T01:23:38;4.10;99.90
65036;DHT22;51603;49.300;8.880;2024-03-02T01:26:03;4.10;99.90
65036;DHT22;51603;49.300;8.880;2024-03-02T01:28:29;4.10;99.90
65036;DHT22;51603;49.300;8.880;2024-03-02T01:30:54;4.10;99.90
65036;DHT22;51603;49.300;8.880;2024-03-02T01:33:20;4.00;99.90
65036;DHT22;51603;49.300;8.880;2024-03-02T01:35:46;4.00;99.90
65036;DHT22;51603;49.300;8.880;2024-03-02T01:38:13;4.00;99.90
65036;DHT22;51603;49.300;8.880;2024-03-02T01:40:38;4.10;99.90
65036;DHT22;51603;49.300;8.880;2024-03-02T01:43:07;3.90;99.90
65036;DHT22;51603;49.300;8.880;2024-03-02T01:45:34;4.00;99.90
65036;DHT22;51603;49.300;8.880;2024-03-02T01:48:00;3.90;99.90
65036;DHT22;51603;49.300;8.880;2024-03-02T01:50:28;3.90;99.90
65036;DHT22;51603;49.300;8.880;2024-03-02T01:52:55;3.90;99.90
65036;DHT22;51603;49.300;8.880;2024-03-02T01:55:21;3.80;99.90
65036;DHT22;51603;49.300;8.880;2024-03-02T01:57:48;3.70;99.90
65036;DHT22;51603;49.300;8.880;2024-03-02T02:00:14;3.70;99.90
65036;DHT22;51603;49.300;8.880;2024-03-02T02:02:40;3.70;99.90
65036;DHT22;51603;49.300;8.880;2024-03-02T02:05:06;3.70;99.90
65036;DHT22;51603;49.300;8.880;2024-03-02T02:07:31;3.60;99.90
65036;DHT22;51603;49.300;8.880;2024-03-02T02:09:57;3.60;99.90
65036;DHT22;51603;49.300;8.880;2024-03-02T02:12:23;3.60;99.90
65036;DHT22;51603;49.300;8.880;2024-03-02T02:14:49;3.60;99.90
65036;DHT22;51603;49.300;8.880;2024-03-02T02:17:15;3.50;99.90
65036;DHT22;51603;49.300;8.880;2024-03-02T02:19:41;3.50;99.90
65036;DHT22;51603;49.300;8.880;2024-03-02T02:22:08;3.50;99.90
65036;DHT22;51603;49.300;8.880;2024-03-02T02:24:33;3.50;99.90
65036;DHT22;51603;49.300;8.880;2024-03-02T02:26:59;3.50;99.90
65036;DHT22;51603;49.300;8.880;2024-03-02T02:29:24;3.40;99.90
65036;DHT22;51603;49.300;8.880;2024-03-02T02:31:50;3.40;99.90
65036;DHT22;51603;49.300;8.880;2024-03-02T02:34:16;3.40;99.90
65036;DHT22;51603;49.300;8.880;2024-03-02T02:36:41;3.30;99.90
65036;DHT22;51603;49.300;8.880;2024-03-02T02:39:12;3.30;99.90
65036;DHT22;51603;49.300;8.880;2024-03-02T02:41:38;3.30;99.90
65036;DHT22;51603;49.300;8.880;2024-03-02T02:44:04;3.20;99.90
65036;DHT22;51603;49.300;8.880;2024-03-02T02:46:30;3.20;99.90
65036;DHT22;51603;49.300;8.880;2024-03-02T02:48:55;3.20;99.90
65036;DHT22;51603;49.300;8.880;2024-03-02T02:51:21;3.10;99.90
65036;DHT22;51603;49.300;8.880;2024-03-02T02:53:47;3.10;99.90
65036;DHT22;51603;49.300;8.880;2024-03-02T02:56:12;3.10;99.90
65036;DHT22;51603;49.300;8.880;2024-03-02T02:58:40;3.10;99.90
65036;DHT22;51603;49.300;8.880;2024-03-02T03:01:06;3.10;99.90
65036;DHT22;51603;49.300;8.880;2024-03-02T03:03:32;3.10;99.90
65036;DHT22;51603;49.300;8.880;2024-03-02T03:05:58;3.10;99.90
65036;DHT22;51603;49.300;8.880;2024-03-02T03:08:23;3.00;99.90
65036;DHT22;51603;49.300;8.880;2024-03-02T03:10:49;3.10;99.90
65036;DHT22;51603;49.300;8.880;2024-03-02T03:13:15;3.00;99.90
65036;DHT22;51603;49.300;8.880;2024-03-02T03:15:40;3.00;99.90
65036;DHT22;51603;49.300;8.880;2024-03-02T03:18:06;3.00;99.90
65036;DHT22;51603;49.300;8.880;2024-03-02T03:20:33;3.00;99.90
65036;DHT22;51603;49.300;8.880;2024-03-02T03:22:59;3.00;99.90
65036;DHT22;51603;49.300;8.880;2024-03-02T03:25:24;3.10;99.90
65036;DHT22;51603;49.300;8.880;2024-03-02T03:27:50;3.00;99.90
65036;DHT22;51603;49.300;8.880;2024-03-02T03:30:18;3.00;99.90
65036;DHT22;51603;49.300;8.880;2024-03-02T03:32:43;3.00;99.90
65036;DHT22;51603;49.300;8.880;2024-03-02T03:35:09;3.00;99.90
65036;DHT22;51603;49.300;8.880;2024-03-02T03:37:34;2.90;99.90
65036;DHT22;51603;49.300;8.880;2024-03-02T03:40:00;2.90;99.90
65036;DHT22;51603;49.300;8.880;2024-03-02T03:42:26;2.90;99.90
65036;DHT22;51603;49.300;8.880;2024-03-02T03:44:52;2.90;99.90
65036;DHT22;51603;49.300;8.880;2024-03-02T03:47:17;2.90;99.90
65036;DHT22;51603;49.300;8.880;2024-03-02T03:49:43;3.00;99.90
65036;DHT22;51603;49.300;8.880;2024-03-02T03:52:08;2.90;99.90
65036;DHT22;51603;49.300;8.880;2024-03-02T03:54:34;2.90;99.90
65036;DHT22;51603;49.300;8.880;2024-03-02T03:56:59;2.80;99.90
65036;DHT22;51603;49.300;8.880;2024-03-02T03:59:25;2.90;99.90
65036;DHT22;51603;49.300;8.880;2024-03-02T04:01:50;2.90;99.90
65036;DHT22;51603;49.300;8.880;2024-03-02T04:04:16;2.90;99.90
65036;DHT22;51603;49.300;8.880;2024-03-02T04:06:42;2.90;99.90
65036;DHT22;51603;49.300;8.880;2024-03-02T04:09:08;2.80;99.90
65036;DHT22;51603;49.300;8.880;2024-03-02T04:11:33;2.80;99.90
65036;DHT22;51603;49.300;8.880;2024-03-02T04:13:58;2.80;99.90
65036;DHT22;51603;49.300;8.880;2024-03-02T04:16:24;2.80;99.90
65036;DHT22;51603;49.300;8.880;2024-03-02T04:18:50;2.80;99.90
65036;DHT22;51603;49.300;8.880;2024-03-02T04:21:15;2.80;99.90
65036;DHT22;51603;49.300;8.880;2024-03-02T04:23:41;2.80;99.90
65036;DHT22;51603;49.300;8.880;2024-03-02T04:26:06;2.80;99.90
65036;DHT22;51603;49.300;8.880;2024-03-02T04:28:31;2.90;99.90
65036;DHT22;51603;49.300;8.880;2024-03-02T04:30:58;2.80;99.90
65036;DHT22;51603;49.300;8.880;2024-03-02T04:33:23;2.80;99.90
65036;DHT22;51603;49.300;8.880;2024-03-02T04:35:49;2.80;99.90
65036;DHT22;51603;49.300;8.880;2024-03-02T04:38:14;2.80;99.90
65036;DHT22;51603;49.300;8.880;2024-03-02T04:40:40;2.90;99.90
65036;DHT22;51603;49.300;8.880;2024-03-02T04:43:05;2.80;99.90
65036;DHT22;51603;49.300;8.880;2024-03-02T04:45:31;2.80;99.90
65036;DHT22;51603;49.300;8.880;2024-03-02T04:47:57;2.80;99.90
65036;DHT22;51603;49.300;8.880;2024-03-02T04:50:22;2.80;99.90
65036;DHT22;51603;49.300;8.880;2024-03-02T04:52:47;2.80;99.90
65036;DHT22;51603;49.300;8.880;2024-03-02T04:55:14;2.80;99.90
65036;DHT22;51603;49.300;8.880;2024-03-02T04:57:55;2.80;99.90
65036;DHT22;51603;49.300;8.880;2024-03-02T05:00:21;2.80;99.90
65036;DHT22;51603;49.300;8.880;2024-03-02T05:02:47;2.80;99.90
65036;DHT22;51603;49.300;8.880;2024-03-02T05:05:12;2.80;99.90
65036;DHT22;51603;49.300;8.880;2024-03-02T05:07:38;2.80;99.90
65036;DHT22;51603;49.300;8.880;2024-03-02T05:10:03;2.80;99.90
65036;DHT22;51603;49.300;8.880;2024-03-02T05:12:29;2.80;99.90
65036;DHT22;51603;49.300;8.880;2024-03-02T05:15:11;2.80;99.90
65036;DHT22;51603;49.300;8.880;2024-03-02T05:17:37;2.80;99.90
65036;DHT22;51603;49.300;8.880;2024-03-02T05:20:04;2.80;99.90
65036;DHT22;51603;49.300;8.880;2024-03-02T05:22:30;2.70;99.90
65036;DHT22;51603;49.300;8.880;2024-03-02T05:24:55;2.70;99.90
65036;DHT22;51603;49.300;8.880;2024-03-02T05:27:21;2.80;99.90
65036;DHT22;51603;49.300;8.880;2024-03-02T05:29:47;2.80;99.90
65036;DHT22;51603;49.300;8.880;2024-03-02T05:32:13;2.80;99.90
65036;DHT22;51603;49.300;8.880;2024-03-02T05:34:38;2.80;99.90
65036;DHT22;51603;49.300;8.880;2024-03-02T05:37:04;2.80;99.90
65036;DHT22;51603;49.300;8.880;2024-03-02T05:39:29;2.80;99.90
65036;DHT22;51603;49.300;8.880;2024-03-02T05:41:55;2.80;99.90
65036;DHT22;51603;49.300;8.880;2024-03-02T05:44:20;2.80;99.90
65036;DHT22;51603;49.300;8.880;2024-03-02T05:46:46;2.80;99.90
65036;DHT22;51603;49.300;8.880;2024-03-02T05:49:12;2.90;99.90
65036;DHT22;51603;49.300;8.880;2024-03-02T05:51:37;2.90;99.90
65036;DHT22;51603;49.300;8.880;2024-03-02T05:54:03;2.80;99.90
65036;DHT22;51603;49.300;8.880;2024-03-02T05:56:29;2.90;99.90
65036;DHT22;51603;49.300;8.880;2024-03-02T05:58:55;2.90;99.90
65036;DHT22;51603;49.300;8.880;2024-03-02T06:01:53;2.90;99.90
65036;DHT22;51603;49.300;8.880;2024-03-02T06:04:18;2.80;99.90
65036;DHT22;51603;49.300;8.880;2024-03-02T06:06:44;2.80;99.90
65036;DHT22;51603;49.300;8.880;2024-03-02T06:09:09;2.80;99.90
65036;DHT22;51603;49.300;8.880;2024-03-02T06:11:38;2.80;99.90
65036;DHT22;51603;49.300;8.880;2024-03-02T06:14:05;2.80;99.90
65036;DHT22;51603;49.300;8.880;2024-03-02T06:16:31;2.80;99.90
65036;DHT22;51603;49.300;8.880;2024-03-02T06:18:57;2.80;99.90
65036;DHT22;51603;49.300;8.880;2024-03-02T06:21:23;2.80;99.90
65036;DHT22;51603;49.300;8.880;2024-03-02T06:23:49;2.80;99.90
65036;DHT22;51603;49.300;8.880;2024-03-02T06:26:14;2.80;99.90
65036;DHT22;51603;49.300;8.880;2024-03-02T06:28:40;2.80;99.90
65036;DHT22;51603;49.300;8.880;2024-03-02T06:31:06;2.80;99.90
65036;DHT22;51603;49.300;8.880;2024-03-02T06:33:31;2.90;99.90
65036;DHT22;51603;49.300;8.880;2024-03-02T06:35:57;2.90;99.90
65036;DHT22;51603;49.300;8.880;2024-03-02T06:38:22;2.80;99.90
65036;DHT22;51603;49.300;8.880;2024-03-02T06:40:48;2.80;99.90
65036;DHT22;51603;49.300;8.880;2024-03-02T06:43:13;2.90;99.90
65036;DHT22;51603;49.300;8.880;2024-03-02T06:45:39;2.90;99.90
65036;DHT22;51603;49.300;8.880;2024-03-02T06:48:04;2.90;99.90
65036;DHT22;51603;49.300;8.880;2024-03-02T06:50:30;2.90;99.90
65036;DHT22;51603;49.300;8.880;2024-03-02T06:52:56;3.00;99.90
65036;DHT22;51603;49.300;8.880;2024-03-02T06:55:22;3.00;99.90
65036;DHT22;51603;49.300;8.880;2024-03-02T06:57:47;3.00;99.90
65036;DHT22;51603;49.300;8.880;2024-03-02T07:00:13;3.10;99.90
65036;DHT22;51603;49.300;8.880;2024-03-02T07:02:39;3.10;99.90
65036;DHT22;51603;49.300;8.880;2024-03-02T07:05:07;3.20;99.90
65036;DHT22;51603;49.300;8.880;2024-03-02T07:07:33;3.20;99.90
65036;DHT22;51603;49.300;8.880;2024-03-02T07:10:00;3.20;99.90
65036;DHT22;51603;49.300;8.880;2024-03-02T07:12:26;3.20;99.90
65036;DHT22;51603;49.300;8.880;2024-03-02T07:14:51;3.20;99.90
65036;DHT22;51603;49.300;8.880;2024-03-02T07:17:30;3.30;99.90
65036;DHT22;51603;49.300;8.880;2024-03-02T07:19:56;3.40;99.90
65036;DHT22;51603;49.300;8.880;2024-03-02T07:22:22;3.30;99.90
65036;DHT22;51603;49.300;8.880;2024-03-02T07:24:48;3.40;99.90
65036;DHT22;51603;49.300;8.880;2024-03-02T07:27:15;3.40;99.90
65036;DHT22;51603;49.300;8.880;2024-03-02T07:29:40;3.30;99.90
65036;DHT22;51603;49.300;8.880;2024-03-02T07:32:07;3.40;99.90
65036;DHT22;51603;49.300;8.880;2024-03-02T07:34:33;3.40;99.90
65036;DHT22;51603;49.300;8.880;2024-03-02T07:36:58;3.40;99.90
65036;DHT22;51603;49.300;8.880;2024-03-02T07:39:24;3.40;99.90
65036;DHT22;51603;49.300;8.880;2024-03-02T07:41:50;3.40;99.90
65036;DHT22;51603;49.300;8.880;2024-03-02T07:44:16;3.40;99.90
65036;DHT22;51603;49.300;8.880;2024-03-02T07:46:44;3.40;99.90
65036;DHT22;51603;49.300;8.880;2024-03-02T07:49:12;3.40;99.90
65036;DHT22;51603;49.300;8.880;2024-03-02T07:51:39;3.50;99.90
65036;DHT22;51603;49.300;8.880;2024-03-02T07:54:04;3.40;99.90
65036;DHT22;51603;49.300;8.880;2024-03-02T07:56:30;3.50;99.90
65036;DHT22;51603;49.300;8.880;2024-03-02T07:58:56;3.50;99.90
65036;DHT22;51603;49.300;8.880;2024-03-02T08:01:22;3.50;99.90
65036;DHT22;51603;49.300;8.880;2024-03-02T08:03:48;3.50;99.90
65036;DHT22;51603;49.300;8.880;2024-03-02T08:06:16;3.60;99.90
65036;DHT22;51603;49.300;8.880;2024-03-02T08:08:41;3.60;99.90
65036;DHT22;51603;49.300;8.880;2024-03-02T08:11:07;3.70;99.90
65036;DHT22;51603;49.300;8.880;2024-03-02T08:13:32;3.80;99.90
65036;DHT22;51603;49.300;8.880;2024-03-02T08:15:58;3.90;99.90
65036;DHT22;51603;49.300;8.880;2024-03-02T08:18:24;4.10;99.90
65036;DHT22;51603;49.300;8.880;2024-03-02T08:20:50;4.30;99.90
65036;DHT22;51603;49.300;8.880;2024-03-02T08:23:15;4.50;99.90
65036;DHT22;51603;49.300;8.880;2024-03-02T08:25:41;4.70;99.90
65036;DHT22;51603;49.300;8.880;2024-03-02T08:28:07;5.00;99.90
65036;DHT22;51603;49.300;8.880;2024-03-02T08:30:32;5.20;99.90
65036;DHT22;51603;49.300;8.880;2024-03-02T08:32:58;5.40;99.90
65036;DHT22;51603;49.300;8.880;2024-03-02T08:35:25;5.60;99.90
65036;DHT22;51603;49.300;8.880;2024-03-02T08:37:50;5.80;99.90
65036;DHT22;51603;49.300;8.880;2024-03-02T08:40:16;6.00;99.90
65036;DHT22;51603;49.300;8.880;2024-03-02T08:42:41;6.10;99.90
65036;DHT22;51603;49.300;8.880;2024-03-02T08:45:07;6.30;99.90
65036;DHT22;51603;49.300;8.880;2024-03-02T08:47:33;6.40;99.90
65036;DHT22;51603;49.300;8.880;2024-03-02T08:50:00;6.50;99.90
65036;DHT22;51603;49.300;8.880;2024-03-02T08:52:26;6.60;99.90
65036;DHT22;51603;49.300;8.880;2024-03-02T08:54:51;6.70;99.90
65036;DHT22;51603;49.300;8.880;2024-03-02T08:57:17;6.80;99.90
65036;DHT22;51603;49.300;8.880;2024-03-02T08:59:43;7.00;99.90
65036;DHT22;51603;49.300;8.880;2024-03-02T09:02:09;7.20;99.90
65036;DHT22;51603;49.300;8.880;2024-03-02T09:04:35;7.30;99.90
65036;DHT22;51603;49.300;8.880;2024-03-02T09:07:00;7.60;99.90
65036;DHT22;51603;49.300;8.880;2024-03-02T09:09:26;7.80;99.90
65036;DHT22;51603;49.300;8.880;2024-03-02T09:11:52;8.00;99.90
65036;DHT22;51603;49.300;8.880;2024-03-02T09:14:20;8.10;99.90
65036;DHT22;51603;49.300;8.880;2024-03-02T09:16:46;8.30;99.90
65036;DHT22;51603;49.300;8.880;2024-03-02T09:19:11;8.30;99.90
65036;DHT22;51603;49.300;8.880;2024-03-02T09:21:37;8.50;99.90
65036;DHT22;51603;49.300;8.880;2024-03-02T09:24:02;8.50;99.90
65036;DHT22;51603;49.300;8.880;2024-03-02T09:26:29;8.70;99.90
65036;DHT22;51603;49.300;8.880;2024-03-02T09:28:54;8.80;99.90
65036;DHT22;51603;49.300;8.880;2024-03-02T09:31:20;8.90;99.90
65036;DHT22;51603;49.300;8.880;2024-03-02T09:33:45;9.10;99.90
65036;DHT22;51603;49.300;8.880;2024-03-02T09:36:18;9.30;99.90
65036;DHT22;51603;49.300;8.880;2024-03-02T09:38:44;9.50;99.90
65036;DHT22;51603;49.300;8.880;2024-03-02T09:41:10;9.60;99.90
65036;DHT22;51603;49.300;8.880;2024-03-02T09:43:35;9.70;99.90
65036;DHT22;51603;49.300;8.880;2024-03-02T09:46:01;9.80;99.90
65036;DHT22;51603;49.300;8.880;2024-03-02T09:48:27;10.00;99.90
65036;DHT22;51603;49.300;8.880;2024-03-02T09:50:52;10.00;99.90
65036;DHT22;51603;49.300;8.880;2024-03-02T09:53:18;10.10;99.90
65036;DHT22;51603;49.300;8.880;2024-03-02T09:55:47;10.20;99.90
65036;DHT22;51603;49.300;8.880;2024-03-02T09:58:13;10.40;99.90
65036;DHT22;51603;49.300;8.880;2024-03-02T10:00:38;10.60;99.90
65036;DHT22;51603;49.300;8.880;2024-03-02T10:03:04;10.80;99.90
65036;DHT22;51603;49.300;8.880;2024-03-02T10:05:30;10.90;99.90
65036;DHT22;51603;49.300;8.880;2024-03-02T10:08:02;11.00;99.90
65036;DHT22;51603;49.300;8.880;2024-03-02T10:10:38;11.10;99.90
65036;DHT22;51603;49.300;8.880;2024-03-02T10:13:09;11.20;99.90
65036;DHT22;51603;49.300;8.880;2024-03-02T10:15:36;11.20;99.90
65036;DHT22;51603;49.300;8.880;2024-03-02T10:18:11;11.30;99.90
65036;DHT22;51603;49.300;8.880;2024-03-02T10:20:38;11.50;99.90
65036;DHT22;51603;49.300;8.880;2024-03-02T10:23:16;11.70;99.90
65036;DHT22;51603;49.300;8.880;2024-03-02T10:25:43;11.70;99.90
65036;DHT22;51603;49.300;8.880;2024-03-02T10:28:09;11.70;99.90
65036;DHT22;51603;49.300;8.880;2024-03-02T10:30:35;11.80;99.90
65036;DHT22;51603;49.300;8.880;2024-03-02T10:33:01;11.90;99.90
65036;DHT22;51603;49.300;8.880;2024-03-02T10:35:27;12.00;99.90
65036;DHT22;51603;49.300;8.880;2024-03-02T10:37:53;12.10;99.90
65036;DHT22;51603;49.300;8.880;2024-03-02T10:40:22;12.30;99.90
65036;DHT22;51603;49.300;8.880;2024-03-02T10:42:50;12.30;99.90
65036;DHT22;51603;49.300;8.880;2024-03-02T10:45:16;12.50;99.90
65036;DHT22;51603;49.300;8.880;2024-03-02T10:47:47;12.60;99.90
65036;DHT22;51603;49.300;8.880;2024-03-02T10:50:12;12.70;99.90
65036;DHT22;51603;49.300;8.880;2024-03-02T10:52:38;12.80;99.90
65036;DHT22;51603;49.300;8.880;2024-03-02T10:55:05;13.00;99.90
65036;DHT22;51603;49.300;8.880;2024-03-02T10:57:52;13.10;99.90
65036;DHT22;51603;49.300;8.880;2024-03-02T11:00:24;13.20;99.90
65036;DHT22;51603;49.300;8.880;2024-03-02T11:02:56;13.20;99.90
65036;DHT22;51603;49.300;8.880;2024-03-02T11:05:31;13.30;99.90
65036;DHT22;51603;49.300;8.880;2024-03-02T11:08:00;13.50;99.90
65036;DHT22;51603;49.300;8.880;2024-03-02T11:10:35;13.60;99.90
65036;DHT22;51603;49.300;8.880;2024-03-02T11:13:05;13.60;99.90
65036;DHT22;51603;49.300;8.880;2024-03-02T11:15:31;13.70;99.90
65036;DHT22;51603;49.300;8.880;2024-03-02T11:18:00;13.80;99.90
65036;DHT22;51603;49.300;8.880;2024-03-02T11:20:27;13.90;99.90
65036;DHT22;51603;49.300;8.880;2024-03-02T11:22:54;14.10;99.90
65036;DHT22;51603;49.300;8.880;2024-03-02T11:25:26;14.30;99.90
65036;DHT22;51603;49.300;8.880;2024-03-02T11:32:59;14.40;98.90
65036;DHT22;51603;49.300;8.880;2024-03-02T11:35:26;14.50;99.30
65036;DHT22;51603;49.300;8.880;2024-03-02T11:37:52;14.30;98.10
65036;DHT22;51603;49.300;8.880;2024-03-02T11:40:36;14.20;98.60
65036;DHT22;51603;49.300;8.880;2024-03-02T11:43:05;14.20;98.60
65036;DHT22;51603;49.300;8.880;2024-03-02T11:45:31;14.30;99.00
65036;DHT22;51603;49.300;8.880;2024-03-02T11:47:59;14.20;97.80
65036;DHT22;51603;49.300;8.880;2024-03-02T11:50:34;14.30;99.30
65036;DHT22;51603;49.300;8.880;2024-03-02T11:53:03;14.50;99.10
65036;DHT22;51603;49.300;8.880;2024-03-02T11:55:32;14.60;99.10
65036;DHT22;51603;49.300;8.880;2024-03-02T11:58:01;14.80;98.80
65036;DHT22;51603;49.300;8.880;2024-03-02T12:00:27;14.70;96.30
65036;DHT22;51603;49.300;8.880;2024-03-02T12:03:05;14.80;97.80
65036;DHT22;51603;49.300;8.880;2024-03-02T12:05:31;15.00;97.70
65036;DHT22;51603;49.300;8.880;2024-03-02T12:07:58;15.10;97.30
65036;DHT22;51603;49.300;8.880;2024-03-02T12:10:25;15.10;96.20
65036;DHT22;51603;49.300;8.880;2024-03-02T12:13:00;15.20;95.70
65036;DHT22;51603;49.300;8.880;2024-03-02T12:15:30;15.40;97.00
65036;DHT22;51603;49.300;8.880;2024-03-02T12:17:57;15.40;96.40
65036;DHT22;51603;49.300;8.880;2024-03-02T12:20:24;15.50;96.10
65036;DHT22;51603;49.300;8.880;2024-03-02T12:22:53;15.40;94.50
65036;DHT22;51603;49.300;8.880;2024-03-02T12:25:23;15.40;94.90
65036;DHT22;51603;49.300;8.880;2024-03-02T12:27:54;15.50;93.20
65036;DHT22;51603;49.300;8.880;2024-03-02T12:30:20;15.50;94.40
65036;DHT22;51603;49.300;8.880;2024-03-02T12:32:46;15.60;94.70
65036;DHT22;51603;49.300;8.880;2024-03-02T12:35:12;15.80;93.90
65036;DHT22;51603;49.300;8.880;2024-03-02T12:37:48;16.00;93.90
65036;DHT22;51603;49.300;8.880;2024-03-02T12:40:16;16.30;93.90
65036;DHT22;51603;49.300;8.880;2024-03-02T12:42:45;16.40;93.60
65036;DHT22;51603;49.300;8.880;2024-03-02T12:45:12;16.50;92.00
65036;DHT22;51603;49.300;8.880;2024-03-02T12:47:39;16.40;90.90
65036;DHT22;51603;49.300;8.880;2024-03-02T12:50:06;16.20;91.70
65036;DHT22;51603;49.300;8.880;2024-03-02T12:52:32;16.20;91.20
65036;DHT22;51603;49.300;8.880;2024-03-02T12:54:59;16.20;90.70
65036;DHT22;51603;49.300;8.880;2024-03-02T12:57:32;16.30;91.00
65036;DHT22;51603;49.300;8.880;2024-03-02T13:00:05;16.50;90.90
65036;DHT22;51603;49.300;8.880;2024-03-02T13:02:35;16.70;90.80
65036;DHT22;51603;49.300;8.880;2024-03-02T13:05:01;16.80;89.00
65036;DHT22;51603;49.300;8.880;2024-03-02T13:07:27;16.70;87.90
65036;DHT22;51603;49.300;8.880;2024-03-02T13:09:53;16.70;89.20
65036;DHT22;51603;49.300;8.880;2024-03-02T13:12:21;16.80;88.80
65036;DHT22;51603;49.300;8.880;2024-03-02T13:14:51;16.90;88.80
65036;DHT22;51603;49.300;8.880;2024-03-02T13:17:17;17.00;87.80
65036;DHT22;51603;49.300;8.880;2024-03-02T13:19:57;17.30;84.60
65036;DHT22;51603;49.300;8.880;2024-03-02T13:22:23;17.20;85.20
65036;DHT22;51603;49.300;8.880;2024-03-02T13:24:49;17.10;85.80
65036;DHT22;51603;49.300;8.880;2024-03-02T13:27:15;16.90;82.10
65036;DHT22;51603;49.300;8.880;2024-03-02T13:29:42;16.80;84.60
65036;DHT22;51603;49.300;8.880;2024-03-02T13:32:07;16.80;83.00
65036;DHT22;51603;49.300;8.880;2024-03-02T13:34:33;16.90;84.80
65036;DHT22;51603;49.300;8.880;2024-03-02T13:36:58;16.90;77.90
65036;DHT22;51603;49.300;8.880;2024-03-02T13:39:26;16.80;81.20
65036;DHT22;51603;49.300;8.880;2024-03-02T13:41:52;17.10;83.70
65036;DHT22;51603;49.300;8.880;2024-03-02T13:44:22;17.30;81.10
65036;DHT22;51603;49.300;8.880;2024-03-02T13:46:48;17.30;81.50
65036;DHT22;51603;49.300;8.880;2024-03-02T13:49:14;17.40;80.30
65036;DHT22;51603;49.300;8.880;2024-03-02T13:51:40;17.30;78.90
65036;DHT22;51603;49.300;8.880;2024-03-02T13:54:05;17.50;78.20
65036;DHT22;51603;49.300;8.880;2024-03-02T13:56:31;17.40;78.80
65036;DHT22;51603;49.300;8.880;2024-03-02T13:58:58;17.30;76.40
65036;DHT22;51603;49.300;8.880;2024-03-02T14:01:23;17.40;78.30
65036;DHT22;51603;49.300;8.880;2024-03-02T14:03:49;17.50;76.80
65036;DHT22;51603;49.300;8.880;2024-03-02T14:06:14;17.50;76.60
65036;DHT22;51603;49.300;8.880;2024-03-02T14:08:40;17.70;76.80
65036;DHT22;51603;49.300;8.880;2024-03-02T14:11:05;17.70;76.50
65036;DHT22;51603;49.300;8.880;2024-03-02T14:13:31;17.70;75.00
65036;DHT22;51603;49.300;8.880;2024-03-02T14:15:56;17.70;77.40
65036;DHT22;51603;49.300;8.880;2024-03-02T14:18:23;17.40;73.40
65036;DHT22;51603;49.300;8.880;2024-03-02T14:20:49;17.30;74.00
65036;DHT22;51603;49.300;8.880;2024-03-02T14:23:18;17.30;73.50
65036;DHT22;51603;49.300;8.880;2024-03-02T14:25:44;17.10;74.40
65036;DHT22;51603;49.300;8.880;2024-03-02T14:28:10;17.20;75.90
65036;DHT22;51603;49.300;8.880;2024-03-02T14:30:37;17.30;73.90
65036;DHT22;51603;49.300;8.880;2024-03-02T14:33:03;17.30;75.10
65036;DHT22;51603;49.300;8.880;2024-03-02T14:35:28;17.20;75.90
65036;DHT22;51603;49.300;8.880;2024-03-02T14:37:54;17.10;76.70
65036;DHT22;51603;49.300;8.880;2024-03-02T14:40:19;17.00;75.20
65036;DHT22;51603;49.300;8.880;2024-03-02T14:42:47;16.90;73.60
65036;DHT22;51603;49.300;8.880;2024-03-02T14:45:13;16.80;74.90
65036;DHT22;51603;49.300;8.880;2024-03-02T14:47:39;16.70;73.20
65036;DHT22;51603;49.300;8.880;2024-03-02T14:50:05;16.70;76.00
65036;DHT22;51603;49.300;8.880;2024-03-02T14:52:35;16.90;77.00
65036;DHT22;51603;49.300;8.880;2024-03-02T14:55:00;16.80;73.60
65036;DHT22;51603;49.300;8.880;2024-03-02T14:57:27;16.70;74.80
65036;DHT22;51603;49.300;8.880;2024-03-02T14:59:53;16.80;77.40
65036;DHT22;51603;49.300;8.880;2024-03-02T15:02:20;16.90;74.40
65036;DHT22;51603;49.300;8.880;2024-03-02T15:04:45;16.80;72.50
65036;DHT22;51603;49.300;8.880;2024-03-02T15:07:13;16.90;74.90
65036;DHT22;51603;49.300;8.880;2024-03-02T15:09:38;17.10;75.20
65036;DHT22;51603;49.300;8.880;2024-03-02T15:12:04;17.10;74.30
65036;DHT22;51603;49.300;8.880;2024-03-02T15:14:31;17.10;73.20
65036;DHT22;51603;49.300;8.880;2024-03-02T15:16:57;17.00;71.80
65036;DHT22;51603;49.300;8.880;2024-03-02T15:19:23;17.00;74.00
65036;DHT22;51603;49.300;8.880;2024-03-02T15:21:48;17.00;70.80
65036;DHT22;51603;49.300;8.880;2024-03-02T15:24:14;17.10;71.60
65036;DHT22;51603;49.300;8.880;2024-03-02T15:26:39;17.30;73.70
65036;DHT22;51603;49.300;8.880;2024-03-02T15:29:05;17.40;71.10
65036;DHT22;51603;49.300;8.880;2024-03-02T15:31:30;17.40;72.40
65036;DHT22;51603;49.300;8.880;2024-03-02T15:33:56;17.30;68.80
65036;DHT22;51603;49.300;8.880;2024-03-02T15:36:22;17.00;70.70
65036;DHT22;51603;49.300;8.880;2024-03-02T15:38:48;16.90;71.30
65036;DHT22;51603;49.300;8.880;2024-03-02T15:41:14;16.60;71.20
65036;DHT22;51603;49.300;8.880;2024-03-02T15:43:39;16.30;70.40